Банатски Карловац, Serbia

25. фебруар 2018, 14:51 CET (GMT +0100)
Banat | | Change Station

Надм.вис. 292 ft 45.12 °N, 21.31 °E | Updated 11 minutes ago

Делимично облачно
Делимично облачно
29.5 °F
Субјективни осећај 19 °F
С
13.0
Ветар Променљив Ветар из Северни
Gusts 13.0 mph

Данас
Макс. -- | Мин. -- °F
--% Вероватноћа за падавине
Јуче
Макс. -- | Мин. -- °F
Precip. -- инч
Притисак 30.09 инч
Видљивост -9999.0 миља
Облаци
Субјективни осећај 19 °F
Тачка росе 17 °F
Влажност ваздуха 60%
Киша 0.00 инч
Висина снега Није доступно.
6:21 AM 5:17 PM
Друга четвртина, 75% visible
METAR LYVR 251330Z VRB11KT CAVOK M02/M11 Q1019 NOSIG RMK WIND AT MID POINT 01011KT
Притисак 30.09 инч
Видљивост -9999.0 миља
Облаци
Субјективни осећај 19 °F
Тачка росе 17 °F
Влажност ваздуха 60%
Киша 0.00 инч
Висина снега Није доступно.
6:21 AM 5:17 PM
Друга четвртина, 75% visible
METAR LYVR 251330Z VRB11KT CAVOK M02/M11 Q1019 NOSIG RMK WIND AT MID POINT 01011KT

Get Severe Weather Alerts

Thanks for signing up!

Be on the lookout for a verification email in your inbox.

You'll start receiving the daily forecast at 6 AM.

×

10-Day Weather Forecast

×

Almanac

Астрономија

Feb. 25, 2018 Излазак Залазак
Тренутно време
Цивилни сумрак
Наутички сумрак
Астрономски сумрак
Месец
Трајање видљиве светлости
Обданица
Tomorrow will be .
, % of the Moon is Illuminated

Данашњи екстреми

Највише Најниже

Community

Category 6

Welcome to Category 6. This is the collective home for Weather Underground's featured writeups by Dr. Jeff Masters (right), Bob Henson (left), Chris Burt, and other regular contributors.

Nearby

Квалитет ваздуха (AQ)

  Квалитет ваздуха (AQ) Индекс AQ Загађење
Not available.

Висина снега

станица Висина снега Висина

Земљотрес

Место Удаљеност Магнитуда Време и датум
Минимална магнитуда која се објављује је 2.5

Темп. воде у приобаљу

Место Температура

Stations

Оближње метео-станице

Локација станице Темп. Субјективни осећај Тачка росе Влажност ваздуха Ветар Precip. Надм.вис. Ажурирано Тип